Njord Cloud — C6XV6 — position and weather

sailwx.info

Track history (hours):
 
Tides and Currents Weather Stations Pressure Air Temp Water Temp Dewpoint Dewpoint Depression Visibility Wind Speed Wind Dir Waves Ship Positions

Njord Cloud

Last reported at 2017-Nov-15 15:29 UTC. Time now 2017-Nov-25 04:19 UTC.
Position N 37°22' E 025°55'.
Warning: this ship's position is 9 days out of date.

Length 138 m; draft 8.4 m.

Type: Tanker. MMSI: 311023300.

Date/timePositionNaut miles runAvg speedWind from/ knotsBaromVisibWave heightAir tempDewpointWater temp
2017-Nov-15 15:29N 37°22' E 025°55'613.3
2017-Nov-15 15:01N 37°27' E 025°50'713.1
2017-Nov-15 14:30N 37°32' E 025°44'612.9
2017-Nov-15 14:00N 37°38' E 025°41'713.3
2017-Nov-15 13:30N 37°44' E 025°38'713.3
2017-Nov-15 13:00N 37°50' E 025°36'239 7.1
2017-Nov-14 03:24N 40°54' E 028°53'511.4
2017-Nov-14 03:00N 40°51' E 028°58'611.8
2017-Nov-14 02:30N 40°48' E 029°05'611.9
2017-Nov-14 02:00N 40°44' E 029°11'612.3
2017-Nov-14 01:30N 40°44' E 029°19'  
2017-Nov-09 06:12N 36°24' E 014°40'313.1
2017-Nov-09 05:59N 36°25' E 014°37'613.3
2017-Nov-09 05:30N 36°27' E 014°29'713.9
2017-Nov-09 05:00N 36°29' E 014°21'714.3
2017-Nov-09 04:29N 36°31' E 014°12'714.1
2017-Nov-09 03:58N 36°33' E 014°04'  
Track history (hours):
 
Tides and Currents Weather Stations Pressure Air Temp Water Temp Dewpoint Dewpoint Depression Visibility Wind Speed Wind Dir Waves Ship Positions

Njord Cloud

Last reported at 2017-Nov-15 15:29 UTC. Time now 2017-Nov-25 04:19 UTC.
Position N 37°22' E 025°55'.
Warning: this ship's position is 9 days out of date.

Length 138 m; draft 8.4 m.

Type: Tanker. MMSI: 311023300.

Date/timePositionNaut miles runAvg speedWind from/ knotsBaromVisibWave heightAir tempDewpointWater temp
2017-Nov-15 15:29N 37°22' E 025°55'613.3
2017-Nov-15 15:01N 37°27' E 025°50'713.1
2017-Nov-15 14:30N 37°32' E 025°44'612.9
2017-Nov-15 14:00N 37°38' E 025°41'713.3
2017-Nov-15 13:30N 37°44' E 025°38'713.3
2017-Nov-15 13:00N 37°50' E 025°36'239 7.1
2017-Nov-14 03:24N 40°54' E 028°53'511.4
2017-Nov-14 03:00N 40°51' E 028°58'611.8
2017-Nov-14 02:30N 40°48' E 029°05'611.9
2017-Nov-14 02:00N 40°44' E 029°11'612.3
2017-Nov-14 01:30N 40°44' E 029°19'  
2017-Nov-09 06:12N 36°24' E 014°40'313.1
2017-Nov-09 05:59N 36°25' E 014°37'613.3
2017-Nov-09 05:30N 36°27' E 014°29'713.9
2017-Nov-09 05:00N 36°29' E 014°21'714.3
2017-Nov-09 04:29N 36°31' E 014°12'714.1
2017-Nov-09 03:58N 36°33' E 014°04'  

Dump ship's entire track history